sensor_id;sensor_type;location;lat;lon;timestamp;temperature;humidity
22635;DHT22;11484;50.858;4.384;2022-07-24T00:01:42;22.90;98.00
22635;DHT22;11484;50.858;4.384;2022-07-24T00:04:11;22.90;98.20
22635;DHT22;11484;50.858;4.384;2022-07-24T00:06:39;22.90;98.40
22635;DHT22;11484;50.858;4.384;2022-07-24T00:09:07;22.80;98.40
22635;DHT22;11484;50.858;4.384;2022-07-24T00:11:33;22.90;98.40
22635;DHT22;11484;50.858;4.384;2022-07-24T00:13:59;22.90;98.40
22635;DHT22;11484;50.858;4.384;2022-07-24T00:16:25;22.90;98.50
22635;DHT22;11484;50.858;4.384;2022-07-24T00:18:52;22.90;98.70
22635;DHT22;11484;50.858;4.384;2022-07-24T00:21:20;22.80;98.80
22635;DHT22;11484;50.858;4.384;2022-07-24T00:23:46;22.80;99.00
22635;DHT22;11484;50.858;4.384;2022-07-24T00:26:13;22.80;99.20
22635;DHT22;11484;50.858;4.384;2022-07-24T00:28:45;22.70;99.30
22635;DHT22;11484;50.858;4.384;2022-07-24T00:31:16;22.70;99.60
22635;DHT22;11484;50.858;4.384;2022-07-24T00:33:45;22.60;99.90
22635;DHT22;11484;50.858;4.384;2022-07-24T00:36:11;22.50;99.90
22635;DHT22;11484;50.858;4.384;2022-07-24T00:38:37;22.60;99.90
22635;DHT22;11484;50.858;4.384;2022-07-24T00:41:03;22.70;99.90
22635;DHT22;11484;50.858;4.384;2022-07-24T00:43:29;22.50;99.90
22635;DHT22;11484;50.858;4.384;2022-07-24T00:45:55;22.50;99.90
22635;DHT22;11484;50.858;4.384;2022-07-24T00:48:22;22.50;99.90
22635;DHT22;11484;50.858;4.384;2022-07-24T00:50:48;22.50;99.90
22635;DHT22;11484;50.858;4.384;2022-07-24T00:53:14;22.50;99.90
22635;DHT22;11484;50.858;4.384;2022-07-24T00:55:41;22.50;99.90
22635;DHT22;11484;50.858;4.384;2022-07-24T00:58:08;22.40;99.90
22635;DHT22;11484;50.858;4.384;2022-07-24T01:00:34;22.40;99.90
22635;DHT22;11484;50.858;4.384;2022-07-24T01:03:01;22.40;99.90
22635;DHT22;11484;50.858;4.384;2022-07-24T01:05:29;22.40;99.90
22635;DHT22;11484;50.858;4.384;2022-07-24T01:07:56;22.30;99.90
22635;DHT22;11484;50.858;4.384;2022-07-24T01:10:22;22.30;99.90
22635;DHT22;11484;50.858;4.384;2022-07-24T01:12:48;22.40;99.90
22635;DHT22;11484;50.858;4.384;2022-07-24T01:15:14;22.30;99.90
22635;DHT22;11484;50.858;4.384;2022-07-24T01:17:41;22.30;99.90
22635;DHT22;11484;50.858;4.384;2022-07-24T01:20:08;22.30;99.90
22635;DHT22;11484;50.858;4.384;2022-07-24T01:22:34;22.20;99.90
22635;DHT22;11484;50.858;4.384;2022-07-24T01:25:00;22.20;99.90
22635;DHT22;11484;50.858;4.384;2022-07-24T01:27:26;22.10;99.90
22635;DHT22;11484;50.858;4.384;2022-07-24T01:29:52;22.00;99.90
22635;DHT22;11484;50.858;4.384;2022-07-24T01:32:18;22.00;99.90
22635;DHT22;11484;50.858;4.384;2022-07-24T01:34:44;22.00;99.90
22635;DHT22;11484;50.858;4.384;2022-07-24T01:37:12;22.00;99.90
22635;DHT22;11484;50.858;4.384;2022-07-24T01:39:39;22.00;99.90
22635;DHT22;11484;50.858;4.384;2022-07-24T01:42:08;21.90;99.90
22635;DHT22;11484;50.858;4.384;2022-07-24T01:44:34;21.80;99.90
22635;DHT22;11484;50.858;4.384;2022-07-24T01:46:59;21.90;99.90
22635;DHT22;11484;50.858;4.384;2022-07-24T01:49:25;21.80;99.90
22635;DHT22;11484;50.858;4.384;2022-07-24T01:51:51;21.90;99.90
22635;DHT22;11484;50.858;4.384;2022-07-24T01:54:17;21.80;99.90
22635;DHT22;11484;50.858;4.384;2022-07-24T01:56:44;21.70;99.90
22635;DHT22;11484;50.858;4.384;2022-07-24T01:59:10;21.80;99.90
22635;DHT22;11484;50.858;4.384;2022-07-24T02:01:36;21.70;99.90
22635;DHT22;11484;50.858;4.384;2022-07-24T02:04:05;21.70;99.90
22635;DHT22;11484;50.858;4.384;2022-07-24T02:06:33;21.70;99.90
22635;DHT22;11484;50.858;4.384;2022-07-24T02:08:59;21.70;99.90
22635;DHT22;11484;50.858;4.384;2022-07-24T02:11:25;21.70;99.90
22635;DHT22;11484;50.858;4.384;2022-07-24T02:13:53;21.70;99.90
22635;DHT22;11484;50.858;4.384;2022-07-24T02:16:21;21.60;99.90
22635;DHT22;11484;50.858;4.384;2022-07-24T02:18:48;21.60;99.90
22635;DHT22;11484;50.858;4.384;2022-07-24T02:21:13;21.50;99.90
22635;DHT22;11484;50.858;4.384;2022-07-24T02:23:39;21.50;99.90
22635;DHT22;11484;50.858;4.384;2022-07-24T02:26:05;21.50;99.90
22635;DHT22;11484;50.858;4.384;2022-07-24T02:28:32;21.40;99.90
22635;DHT22;11484;50.858;4.384;2022-07-24T02:30:58;21.40;99.90
22635;DHT22;11484;50.858;4.384;2022-07-24T02:33:25;21.40;99.90
22635;DHT22;11484;50.858;4.384;2022-07-24T02:35:51;21.40;99.90
22635;DHT22;11484;50.858;4.384;2022-07-24T02:38:18;21.40;99.90
22635;DHT22;11484;50.858;4.384;2022-07-24T02:40:50;21.40;99.90
22635;DHT22;11484;50.858;4.384;2022-07-24T02:43:17;21.40;99.90
22635;DHT22;11484;50.858;4.384;2022-07-24T02:45:42;21.40;99.90
22635;DHT22;11484;50.858;4.384;2022-07-24T02:48:10;21.40;99.90
22635;DHT22;11484;50.858;4.384;2022-07-24T02:50:38;21.30;99.90
22635;DHT22;11484;50.858;4.384;2022-07-24T02:53:06;21.20;99.90
22635;DHT22;11484;50.858;4.384;2022-07-24T02:55:33;21.20;99.90
22635;DHT22;11484;50.858;4.384;2022-07-24T02:57:58;21.20;99.90
22635;DHT22;11484;50.858;4.384;2022-07-24T03:00:24;21.10;99.90
22635;DHT22;11484;50.858;4.384;2022-07-24T03:02:50;21.10;99.90
22635;DHT22;11484;50.858;4.384;2022-07-24T03:05:17;21.10;99.90
22635;DHT22;11484;50.858;4.384;2022-07-24T03:07:43;21.20;99.90
22635;DHT22;11484;50.858;4.384;2022-07-24T03:10:11;21.10;99.90
22635;DHT22;11484;50.858;4.384;2022-07-24T03:12:39;21.10;99.90
22635;DHT22;11484;50.858;4.384;2022-07-24T03:15:07;21.10;99.90
22635;DHT22;11484;50.858;4.384;2022-07-24T03:17:33;21.10;99.90
22635;DHT22;11484;50.858;4.384;2022-07-24T03:20:00;21.10;99.90
22635;DHT22;11484;50.858;4.384;2022-07-24T03:22:26;21.00;99.90
22635;DHT22;11484;50.858;4.384;2022-07-24T03:24:53;21.00;99.90
22635;DHT22;11484;50.858;4.384;2022-07-24T03:27:22;20.90;99.90
22635;DHT22;11484;50.858;4.384;2022-07-24T03:29:47;20.90;99.90
22635;DHT22;11484;50.858;4.384;2022-07-24T03:32:22;20.80;99.90
22635;DHT22;11484;50.858;4.384;2022-07-24T03:34:48;20.80;99.90
22635;DHT22;11484;50.858;4.384;2022-07-24T03:37:14;20.80;99.90
22635;DHT22;11484;50.858;4.384;2022-07-24T03:39:41;20.80;99.90
22635;DHT22;11484;50.858;4.384;2022-07-24T03:42:15;20.80;99.90
22635;DHT22;11484;50.858;4.384;2022-07-24T03:44:41;20.80;99.90
22635;DHT22;11484;50.858;4.384;2022-07-24T03:47:09;20.80;99.90
22635;DHT22;11484;50.858;4.384;2022-07-24T03:49:35;20.80;99.90
22635;DHT22;11484;50.858;4.384;2022-07-24T03:52:02;20.80;99.90
22635;DHT22;11484;50.858;4.384;2022-07-24T03:54:29;20.80;99.90
22635;DHT22;11484;50.858;4.384;2022-07-24T03:56:54;20.80;99.90
22635;DHT22;11484;50.858;4.384;2022-07-24T03:59:27;20.70;99.90
22635;DHT22;11484;50.858;4.384;2022-07-24T04:01:53;20.70;99.90
22635;DHT22;11484;50.858;4.384;2022-07-24T04:04:19;20.80;99.90
22635;DHT22;11484;50.858;4.384;2022-07-24T04:06:45;20.80;99.90
22635;DHT22;11484;50.858;4.384;2022-07-24T04:09:12;20.70;99.90
22635;DHT22;11484;50.858;4.384;2022-07-24T04:11:38;20.70;99.90
22635;DHT22;11484;50.858;4.384;2022-07-24T04:14:07;20.60;99.90
22635;DHT22;11484;50.858;4.384;2022-07-24T04:16:33;20.50;99.90
22635;DHT22;11484;50.858;4.384;2022-07-24T04:19:05;20.60;99.90
22635;DHT22;11484;50.858;4.384;2022-07-24T04:21:31;20.60;99.90
22635;DHT22;11484;50.858;4.384;2022-07-24T04:24:00;20.60;99.90
22635;DHT22;11484;50.858;4.384;2022-07-24T04:26:26;20.60;99.90
22635;DHT22;11484;50.858;4.384;2022-07-24T04:28:53;20.70;99.90
22635;DHT22;11484;50.858;4.384;2022-07-24T04:31:19;20.70;99.90
22635;DHT22;11484;50.858;4.384;2022-07-24T04:33:44;20.70;99.90
22635;DHT22;11484;50.858;4.384;2022-07-24T04:36:10;20.70;99.90
22635;DHT22;11484;50.858;4.384;2022-07-24T04:38:36;20.70;99.90
22635;DHT22;11484;50.858;4.384;2022-07-24T04:41:04;20.70;99.90
22635;DHT22;11484;50.858;4.384;2022-07-24T04:43:30;20.70;99.90
22635;DHT22;11484;50.858;4.384;2022-07-24T04:45:56;20.70;99.90
22635;DHT22;11484;50.858;4.384;2022-07-24T04:48:22;20.70;99.90
22635;DHT22;11484;50.858;4.384;2022-07-24T04:50:49;20.70;99.90
22635;DHT22;11484;50.858;4.384;2022-07-24T04:53:16;20.80;99.90
22635;DHT22;11484;50.858;4.384;2022-07-24T04:55:42;20.70;99.90
22635;DHT22;11484;50.858;4.384;2022-07-24T04:58:07;20.70;99.90
22635;DHT22;11484;50.858;4.384;2022-07-24T05:00:33;20.70;99.90
22635;DHT22;11484;50.858;4.384;2022-07-24T05:03:01;20.70;99.90
22635;DHT22;11484;50.858;4.384;2022-07-24T05:05:29;20.80;99.90
22635;DHT22;11484;50.858;4.384;2022-07-24T05:07:55;20.80;99.90
22635;DHT22;11484;50.858;4.384;2022-07-24T05:10:20;20.90;99.90
22635;DHT22;11484;50.858;4.384;2022-07-24T05:12:46;20.90;99.90
22635;DHT22;11484;50.858;4.384;2022-07-24T05:15:12;20.90;99.90
22635;DHT22;11484;50.858;4.384;2022-07-24T05:17:38;21.00;99.90
22635;DHT22;11484;50.858;4.384;2022-07-24T05:20:04;21.00;99.90
22635;DHT22;11484;50.858;4.384;2022-07-24T05:22:31;21.00;99.90
22635;DHT22;11484;50.858;4.384;2022-07-24T05:24:56;21.00;99.90
22635;DHT22;11484;50.858;4.384;2022-07-24T05:27:22;21.00;99.90
22635;DHT22;11484;50.858;4.384;2022-07-24T05:29:48;21.00;99.90
22635;DHT22;11484;50.858;4.384;2022-07-24T05:32:14;21.00;99.90
22635;DHT22;11484;50.858;4.384;2022-07-24T05:34:41;20.90;99.90
22635;DHT22;11484;50.858;4.384;2022-07-24T05:37:08;20.90;99.90
22635;DHT22;11484;50.858;4.384;2022-07-24T05:39:34;20.90;99.90
22635;DHT22;11484;50.858;4.384;2022-07-24T05:42:00;21.00;99.90
22635;DHT22;11484;50.858;4.384;2022-07-24T05:44:26;21.00;99.90
22635;DHT22;11484;50.858;4.384;2022-07-24T05:46:51;21.10;99.90
22635;DHT22;11484;50.858;4.384;2022-07-24T05:49:17;21.20;99.70
22635;DHT22;11484;50.858;4.384;2022-07-24T05:51:43;21.30;99.60
22635;DHT22;11484;50.858;4.384;2022-07-24T05:54:08;21.30;99.40
22635;DHT22;11484;50.858;4.384;2022-07-24T05:56:34;21.40;98.90
22635;DHT22;11484;50.858;4.384;2022-07-24T05:59:00;21.40;98.50
22635;DHT22;11484;50.858;4.384;2022-07-24T06:01:25;21.50;98.20
22635;DHT22;11484;50.858;4.384;2022-07-24T06:03:51;21.70;97.90
22635;DHT22;11484;50.858;4.384;2022-07-24T06:06:17;21.80;97.50
22635;DHT22;11484;50.858;4.384;2022-07-24T06:08:43;21.80;97.20
22635;DHT22;11484;50.858;4.384;2022-07-24T06:11:08;21.80;97.00
22635;DHT22;11484;50.858;4.384;2022-07-24T06:13:34;21.90;96.80
22635;DHT22;11484;50.858;4.384;2022-07-24T06:16:00;22.00;96.40
22635;DHT22;11484;50.858;4.384;2022-07-24T06:18:25;22.20;96.20
22635;DHT22;11484;50.858;4.384;2022-07-24T06:20:51;22.60;95.00
22635;DHT22;11484;50.858;4.384;2022-07-24T06:23:17;23.10;94.40
22635;DHT22;11484;50.858;4.384;2022-07-24T06:25:42;24.30;92.20
22635;DHT22;11484;50.858;4.384;2022-07-24T06:28:08;25.90;86.50
22635;DHT22;11484;50.858;4.384;2022-07-24T06:30:34;27.40;77.70
22635;DHT22;11484;50.858;4.384;2022-07-24T06:32:59;28.80;70.60
22635;DHT22;11484;50.858;4.384;2022-07-24T06:35:27;30.00;64.50
22635;DHT22;11484;50.858;4.384;2022-07-24T06:37:54;31.10;58.20
22635;DHT22;11484;50.858;4.384;2022-07-24T06:40:21;32.10;55.80
22635;DHT22;11484;50.858;4.384;2022-07-24T06:42:48;32.80;52.60
22635;DHT22;11484;50.858;4.384;2022-07-24T06:45:14;33.70;50.00
22635;DHT22;11484;50.858;4.384;2022-07-24T06:47:40;34.30;49.10
22635;DHT22;11484;50.858;4.384;2022-07-24T06:50:07;34.70;47.60
22635;DHT22;11484;50.858;4.384;2022-07-24T06:52:33;34.90;46.70
22635;DHT22;11484;50.858;4.384;2022-07-24T06:54:59;35.20;45.80
22635;DHT22;11484;50.858;4.384;2022-07-24T06:57:24;35.50;44.50
22635;DHT22;11484;50.858;4.384;2022-07-24T06:59:53;35.60;44.10
22635;DHT22;11484;50.858;4.384;2022-07-24T07:02:20;35.50;43.40
22635;DHT22;11484;50.858;4.384;2022-07-24T07:04:46;35.70;42.90
22635;DHT22;11484;50.858;4.384;2022-07-24T07:07:12;36.20;43.10
22635;DHT22;11484;50.858;4.384;2022-07-24T07:09:39;36.60;41.70
22635;DHT22;11484;50.858;4.384;2022-07-24T07:12:05;36.80;41.00
22635;DHT22;11484;50.858;4.384;2022-07-24T07:14:31;37.10;39.90
22635;DHT22;11484;50.858;4.384;2022-07-24T07:16:57;37.70;39.00
22635;DHT22;11484;50.858;4.384;2022-07-24T07:19:23;38.10;37.80
22635;DHT22;11484;50.858;4.384;2022-07-24T07:21:48;38.40;37.70
22635;DHT22;11484;50.858;4.384;2022-07-24T07:24:14;38.60;36.80
22635;DHT22;11484;50.858;4.384;2022-07-24T07:26:40;39.20;36.10
22635;DHT22;11484;50.858;4.384;2022-07-24T07:29:05;39.20;35.50
22635;DHT22;11484;50.858;4.384;2022-07-24T07:31:31;39.30;35.20
22635;DHT22;11484;50.858;4.384;2022-07-24T07:33:57;39.60;35.20
22635;DHT22;11484;50.858;4.384;2022-07-24T07:36:23;39.80;34.80
22635;DHT22;11484;50.858;4.384;2022-07-24T07:38:49;40.60;34.00
22635;DHT22;11484;50.858;4.384;2022-07-24T07:41:15;40.50;33.40
22635;DHT22;11484;50.858;4.384;2022-07-24T07:43:41;41.10;33.20
22635;DHT22;11484;50.858;4.384;2022-07-24T07:46:06;40.90;32.40
22635;DHT22;11484;50.858;4.384;2022-07-24T07:48:33;40.40;33.10
22635;DHT22;11484;50.858;4.384;2022-07-24T07:50:59;40.20;32.80
22635;DHT22;11484;50.858;4.384;2022-07-24T07:53:24;40.60;32.80
22635;DHT22;11484;50.858;4.384;2022-07-24T07:55:50;40.40;32.80
22635;DHT22;11484;50.858;4.384;2022-07-24T07:58:19;40.30;33.00
22635;DHT22;11484;50.858;4.384;2022-07-24T08:00:45;40.30;32.90
22635;DHT22;11484;50.858;4.384;2022-07-24T08:03:11;40.20;33.00
22635;DHT22;11484;50.858;4.384;2022-07-24T08:05:37;40.50;32.90
22635;DHT22;11484;50.858;4.384;2022-07-24T08:08:02;40.30;32.60
22635;DHT22;11484;50.858;4.384;2022-07-24T08:10:29;40.50;32.70
22635;DHT22;11484;50.858;4.384;2022-07-24T08:12:54;40.20;32.70
22635;DHT22;11484;50.858;4.384;2022-07-24T08:15:20;40.60;32.80
22635;DHT22;11484;50.858;4.384;2022-07-24T08:17:54;40.30;33.00
22635;DHT22;11484;50.858;4.384;2022-07-24T08:20:20;40.40;32.90
22635;DHT22;11484;50.858;4.384;2022-07-24T08:22:46;41.00;33.00
22635;DHT22;11484;50.858;4.384;2022-07-24T08:25:12;40.90;32.30
22635;DHT22;11484;50.858;4.384;2022-07-24T08:27:38;41.30;32.30
22635;DHT22;11484;50.858;4.384;2022-07-24T08:30:05;41.80;31.70
22635;DHT22;11484;50.858;4.384;2022-07-24T08:32:31;41.90;31.20
22635;DHT22;11484;50.858;4.384;2022-07-24T08:34:56;41.50;31.90
22635;DHT22;11484;50.858;4.384;2022-07-24T08:37:22;41.80;31.90
22635;DHT22;11484;50.858;4.384;2022-07-24T08:39:48;42.20;31.10
22635;DHT22;11484;50.858;4.384;2022-07-24T08:42:13;42.20;31.20
22635;DHT22;11484;50.858;4.384;2022-07-24T08:44:39;42.90;30.70
22635;DHT22;11484;50.858;4.384;2022-07-24T08:47:06;43.30;30.50
22635;DHT22;11484;50.858;4.384;2022-07-24T08:49:35;42.90;30.30
22635;DHT22;11484;50.858;4.384;2022-07-24T08:52:04;42.70;30.50
22635;DHT22;11484;50.858;4.384;2022-07-24T08:54:35;43.00;30.60
22635;DHT22;11484;50.858;4.384;2022-07-24T08:57:02;42.60;31.70
22635;DHT22;11484;50.858;4.384;2022-07-24T08:59:30;41.90;30.90
22635;DHT22;11484;50.858;4.384;2022-07-24T09:01:56;41.50;31.70
22635;DHT22;11484;50.858;4.384;2022-07-24T09:04:45;41.40;32.00
22635;DHT22;11484;50.858;4.384;2022-07-24T09:07:19;41.50;32.10
22635;DHT22;11484;50.858;4.384;2022-07-24T09:10:01;42.20;31.70
22635;DHT22;11484;50.858;4.384;2022-07-24T09:12:33;42.90;31.00
22635;DHT22;11484;50.858;4.384;2022-07-24T09:15:00;43.50;30.10
22635;DHT22;11484;50.858;4.384;2022-07-24T09:17:27;43.90;30.00
22635;DHT22;11484;50.858;4.384;2022-07-24T09:19:56;43.30;29.90
22635;DHT22;11484;50.858;4.384;2022-07-24T09:27:31;43.50;29.50
22635;DHT22;11484;50.858;4.384;2022-07-24T09:29:57;43.90;29.40
22635;DHT22;11484;50.858;4.384;2022-07-24T09:32:24;43.40;29.20
22635;DHT22;11484;50.858;4.384;2022-07-24T09:34:52;43.60;29.40
22635;DHT22;11484;50.858;4.384;2022-07-24T09:37:18;43.10;29.80
22635;DHT22;11484;50.858;4.384;2022-07-24T09:39:45;43.20;29.70
22635;DHT22;11484;50.858;4.384;2022-07-24T09:42:11;43.50;29.60
22635;DHT22;11484;50.858;4.384;2022-07-24T09:44:37;43.90;29.30
22635;DHT22;11484;50.858;4.384;2022-07-24T09:47:09;43.10;29.40
22635;DHT22;11484;50.858;4.384;2022-07-24T09:49:36;43.30;29.90
22635;DHT22;11484;50.858;4.384;2022-07-24T09:54:36;43.10;30.00
22635;DHT22;11484;50.858;4.384;2022-07-24T09:57:15;43.10;30.00
22635;DHT22;11484;50.858;4.384;2022-07-24T09:59:46;43.40;30.00
22635;DHT22;11484;50.858;4.384;2022-07-24T10:02:13;42.40;30.20
22635;DHT22;11484;50.858;4.384;2022-07-24T10:04:41;42.20;30.90
22635;DHT22;11484;50.858;4.384;2022-07-24T10:07:10;42.20;30.80
22635;DHT22;11484;50.858;4.384;2022-07-24T10:09:41;42.80;30.50
22635;DHT22;11484;50.858;4.384;2022-07-24T10:12:12;42.90;30.00
22635;DHT22;11484;50.858;4.384;2022-07-24T10:14:39;42.60;30.10
22635;DHT22;11484;50.858;4.384;2022-07-24T10:17:08;42.50;30.10
22635;DHT22;11484;50.858;4.384;2022-07-24T10:19:48;42.10;30.70
22635;DHT22;11484;50.858;4.384;2022-07-24T10:22:19;41.90;31.70
22635;DHT22;11484;50.858;4.384;2022-07-24T10:27:47;41.00;32.10
22635;DHT22;11484;50.858;4.384;2022-07-24T10:30:15;40.60;32.20
22635;DHT22;11484;50.858;4.384;2022-07-24T10:32:41;40.20;33.00
22635;DHT22;11484;50.858;4.384;2022-07-24T10:38:04;40.30;32.90
22635;DHT22;11484;50.858;4.384;2022-07-24T10:40:52;39.80;33.50
22635;DHT22;11484;50.858;4.384;2022-07-24T10:43:21;39.70;33.60
22635;DHT22;11484;50.858;4.384;2022-07-24T10:53:23;38.70;34.60
22635;DHT22;11484;50.858;4.384;2022-07-24T10:55:49;38.00;35.50
22635;DHT22;11484;50.858;4.384;2022-07-24T10:58:15;37.70;35.80
22635;DHT22;11484;50.858;4.384;2022-07-24T11:00:49;37.40;36.10
22635;DHT22;11484;50.858;4.384;2022-07-24T11:03:25;37.20;36.40
22635;DHT22;11484;50.858;4.384;2022-07-24T11:06:08;36.80;37.00
22635;DHT22;11484;50.858;4.384;2022-07-24T11:11:11;35.70;38.70
22635;DHT22;11484;50.858;4.384;2022-07-24T11:21:32;34.00;41.50
22635;DHT22;11484;50.858;4.384;2022-07-24T11:27:16;33.70;42.50
22635;DHT22;11484;50.858;4.384;2022-07-24T11:29:43;33.60;42.70
22635;DHT22;11484;50.858;4.384;2022-07-24T11:32:14;33.40;43.40
22635;DHT22;11484;50.858;4.384;2022-07-24T11:34:49;33.40;43.50
22635;DHT22;11484;50.858;4.384;2022-07-24T11:37:16;33.20;43.90
22635;DHT22;11484;50.858;4.384;2022-07-24T11:39:43;33.20;44.30
22635;DHT22;11484;50.858;4.384;2022-07-24T11:42:13;33.20;44.00
22635;DHT22;11484;50.858;4.384;2022-07-24T11:47:20;33.10;44.20
22635;DHT22;11484;50.858;4.384;2022-07-24T11:49:48;32.90;44.40
22635;DHT22;11484;50.858;4.384;2022-07-24T11:52:22;32.80;44.50
22635;DHT22;11484;50.858;4.384;2022-07-24T11:54:49;32.70;45.30
22635;DHT22;11484;50.858;4.384;2022-07-24T11:59:43;32.60;45.20
22635;DHT22;11484;50.858;4.384;2022-07-24T12:02:10;32.60;45.70
22635;DHT22;11484;50.858;4.384;2022-07-24T12:04:37;32.40;45.80
22635;DHT22;11484;50.858;4.384;2022-07-24T12:07:13;32.50;46.30
22635;DHT22;11484;50.858;4.384;2022-07-24T12:17:28;32.30;47.00
22635;DHT22;11484;50.858;4.384;2022-07-24T12:19:57;32.40;46.90
22635;DHT22;11484;50.858;4.384;2022-07-24T12:22:24;32.50;46.90
22635;DHT22;11484;50.858;4.384;2022-07-24T12:24:51;32.40;46.80
22635;DHT22;11484;50.858;4.384;2022-07-24T12:27:35;32.40;47.10
22635;DHT22;11484;50.858;4.384;2022-07-24T12:30:02;32.30;47.30
22635;DHT22;11484;50.858;4.384;2022-07-24T12:32:28;32.40;47.20
22635;DHT22;11484;50.858;4.384;2022-07-24T12:34:55;32.50;47.30
22635;DHT22;11484;50.858;4.384;2022-07-24T12:37:22;32.60;47.10
22635;DHT22;11484;50.858;4.384;2022-07-24T12:39:48;32.60;47.10
22635;DHT22;11484;50.858;4.384;2022-07-24T12:42:15;32.40;47.20
22635;DHT22;11484;50.858;4.384;2022-07-24T12:44:45;32.40;47.50
22635;DHT22;11484;50.858;4.384;2022-07-24T12:47:11;32.50;47.40
22635;DHT22;11484;50.858;4.384;2022-07-24T12:49:45;32.50;47.00
22635;DHT22;11484;50.858;4.384;2022-07-24T12:52:21;32.50;47.20
22635;DHT22;11484;50.858;4.384;2022-07-24T12:54:49;32.50;47.20
22635;DHT22;11484;50.858;4.384;2022-07-24T12:57:16;32.40;47.40
22635;DHT22;11484;50.858;4.384;2022-07-24T12:59:45;32.40;47.90
22635;DHT22;11484;50.858;4.384;2022-07-24T13:02:12;32.40;47.70
22635;DHT22;11484;50.858;4.384;2022-07-24T13:04:48;32.40;47.50
22635;DHT22;11484;50.858;4.384;2022-07-24T13:07:16;32.40;47.40
22635;DHT22;11484;50.858;4.384;2022-07-24T13:09:43;32.40;47.80
22635;DHT22;11484;50.858;4.384;2022-07-24T13:12:09;32.40;47.80
22635;DHT22;11484;50.858;4.384;2022-07-24T13:14:36;32.30;48.10
22635;DHT22;11484;50.858;4.384;2022-07-24T13:17:13;32.30;48.00
22635;DHT22;11484;50.858;4.384;2022-07-24T13:19:41;32.30;47.80
22635;DHT22;11484;50.858;4.384;2022-07-24T13:22:08;32.30;48.10
22635;DHT22;11484;50.858;4.384;2022-07-24T13:24:34;32.40;48.00
22635;DHT22;11484;50.858;4.384;2022-07-24T13:27:00;32.40;48.00
22635;DHT22;11484;50.858;4.384;2022-07-24T13:29:27;32.40;48.00
22635;DHT22;11484;50.858;4.384;2022-07-24T13:31:53;32.20;48.10
22635;DHT22;11484;50.858;4.384;2022-07-24T13:34:19;32.20;48.30
22635;DHT22;11484;50.858;4.384;2022-07-24T13:36:45;32.20;48.20
22635;DHT22;11484;50.858;4.384;2022-07-24T13:39:12;32.30;48.00
22635;DHT22;11484;50.858;4.384;2022-07-24T13:41:38;32.20;48.50
22635;DHT22;11484;50.858;4.384;2022-07-24T13:44:04;32.10;48.20
22635;DHT22;11484;50.858;4.384;2022-07-24T13:46:31;32.00;48.40
22635;DHT22;11484;50.858;4.384;2022-07-24T13:48:57;32.00;48.30
22635;DHT22;11484;50.858;4.384;2022-07-24T13:51:24;31.90;48.20
22635;DHT22;11484;50.858;4.384;2022-07-24T13:53:50;31.80;48.60
22635;DHT22;11484;50.858;4.384;2022-07-24T13:56:16;31.90;48.90
22635;DHT22;11484;50.858;4.384;2022-07-24T13:58:42;31.90;48.80
22635;DHT22;11484;50.858;4.384;2022-07-24T14:01:09;32.00;48.70
22635;DHT22;11484;50.858;4.384;2022-07-24T14:03:35;32.10;48.40
22635;DHT22;11484;50.858;4.384;2022-07-24T14:06:03;32.10;48.40
22635;DHT22;11484;50.858;4.384;2022-07-24T14:08:29;32.00;48.40
22635;DHT22;11484;50.858;4.384;2022-07-24T14:10:55;31.90;48.70
22635;DHT22;11484;50.858;4.384;2022-07-24T14:13:21;31.90;49.00
22635;DHT22;11484;50.858;4.384;2022-07-24T14:15:46;31.70;49.20
22635;DHT22;11484;50.858;4.384;2022-07-24T14:18:13;31.70;49.60
22635;DHT22;11484;50.858;4.384;2022-07-24T14:20:39;31.70;49.50
22635;DHT22;11484;50.858;4.384;2022-07-24T14:23:05;31.60;49.50
22635;DHT22;11484;50.858;4.384;2022-07-24T14:25:31;31.60;49.80
22635;DHT22;11484;50.858;4.384;2022-07-24T14:27:56;31.60;49.60
22635;DHT22;11484;50.858;4.384;2022-07-24T14:30:22;31.70;49.80
22635;DHT22;11484;50.858;4.384;2022-07-24T14:32:48;31.80;49.20
22635;DHT22;11484;50.858;4.384;2022-07-24T14:35:14;31.70;48.90
22635;DHT22;11484;50.858;4.384;2022-07-24T14:37:39;31.60;49.40
22635;DHT22;11484;50.858;4.384;2022-07-24T14:40:07;31.60;49.40
22635;DHT22;11484;50.858;4.384;2022-07-24T14:42:33;31.70;49.30
22635;DHT22;11484;50.858;4.384;2022-07-24T14:44:59;31.70;49.10
22635;DHT22;11484;50.858;4.384;2022-07-24T14:47:25;31.90;48.60
22635;DHT22;11484;50.858;4.384;2022-07-24T14:49:52;31.90;48.50
22635;DHT22;11484;50.858;4.384;2022-07-24T14:52:18;32.00;48.40
22635;DHT22;11484;50.858;4.384;2022-07-24T14:54:47;32.00;48.40
22635;DHT22;11484;50.858;4.384;2022-07-24T14:57:13;32.00;48.20
22635;DHT22;11484;50.858;4.384;2022-07-24T14:59:39;32.00;47.80
22635;DHT22;11484;50.858;4.384;2022-07-24T15:02:06;32.00;47.80
22635;DHT22;11484;50.858;4.384;2022-07-24T15:04:32;32.10;47.90
22635;DHT22;11484;50.858;4.384;2022-07-24T15:06:58;32.10;47.80
22635;DHT22;11484;50.858;4.384;2022-07-24T15:09:24;32.10;47.70
22635;DHT22;11484;50.858;4.384;2022-07-24T15:11:49;32.10;48.00
22635;DHT22;11484;50.858;4.384;2022-07-24T15:14:15;32.10;48.20
22635;DHT22;11484;50.858;4.384;2022-07-24T15:16:41;32.10;48.10
22635;DHT22;11484;50.858;4.384;2022-07-24T15:19:07;32.00;48.40
22635;DHT22;11484;50.858;4.384;2022-07-24T15:21:32;31.90;48.30
22635;DHT22;11484;50.858;4.384;2022-07-24T15:23:58;31.80;48.20
22635;DHT22;11484;50.858;4.384;2022-07-24T15:26:24;31.90;48.40
22635;DHT22;11484;50.858;4.384;2022-07-24T15:28:50;31.80;48.30
22635;DHT22;11484;50.858;4.384;2022-07-24T15:31:15;31.80;48.40
22635;DHT22;11484;50.858;4.384;2022-07-24T15:33:45;31.80;48.60
22635;DHT22;11484;50.858;4.384;2022-07-24T15:36:11;31.90;48.40
22635;DHT22;11484;50.858;4.384;2022-07-24T15:38:37;31.90;48.20
22635;DHT22;11484;50.858;4.384;2022-07-24T15:41:03;31.90;48.40
22635;DHT22;11484;50.858;4.384;2022-07-24T15:43:29;31.90;48.20
22635;DHT22;11484;50.858;4.384;2022-07-24T15:45:55;31.80;47.90
22635;DHT22;11484;50.858;4.384;2022-07-24T15:48:21;31.80;47.60
22635;DHT22;11484;50.858;4.384;2022-07-24T15:50:46;31.70;47.70
22635;DHT22;11484;50.858;4.384;2022-07-24T15:53:12;31.70;48.10
22635;DHT22;11484;50.858;4.384;2022-07-24T15:55:38;31.70;48.50
22635;DHT22;11484;50.858;4.384;2022-07-24T15:58:04;31.70;48.20
22635;DHT22;11484;50.858;4.384;2022-07-24T16:00:30;31.70;47.90
22635;DHT22;11484;50.858;4.384;2022-07-24T16:02:57;31.80;47.60
22635;DHT22;11484;50.858;4.384;2022-07-24T16:05:22;31.80;47.30
22635;DHT22;11484;50.858;4.384;2022-07-24T16:07:52;31.80;47.50
22635;DHT22;11484;50.858;4.384;2022-07-24T16:10:20;31.80;47.40
22635;DHT22;11484;50.858;4.384;2022-07-24T16:12:47;31.80;47.80
22635;DHT22;11484;50.858;4.384;2022-07-24T16:15:13;31.90;47.60
22635;DHT22;11484;50.858;4.384;2022-07-24T16:17:40;32.00;46.90